Grandeur Of The Seas — C6SE3 — position and weather

sailwx.info

Track history (hours):
 
Tides and Currents Weather Stations Pressure Air Temp Water Temp Dewpoint Dewpoint Depression Visibility Wind Speed Wind Dir Waves Ship Positions

Grandeur Of The Seas

Operator: Royal Caribbean Cruises Ltd

Last reported at 2017-Jun-16 05:22 UTC. Time now 2017-Jun-22 16:37 UTC.
Position N 36°52' W 075°53'.

Type: Passenger vessel. MMSI: 311315000.

Date/timePositionNaut miles runAvg speedWind from/ knotsBaromVisibWave heightAir tempDewpointWater temp
2017-Jun-16 05:22N 36°52' W 075°53'618.0
2017-Jun-16 05:00N 36°56' W 075°59'1115.4
2017-Jun-16 04:17N 37°06' W 076°07'518.7
2017-Jun-16 04:00N 37°10' W 076°09'1018.9
2017-Jun-16 03:29N 37°20' W 076°05'1317.7
2017-Jun-16 02:47N 37°32' W 076°02'517.3
2017-Jun-16 02:30N 37°36' W 076°05'917.9
2017-Jun-16 02:00N 37°44' W 076°11'1120.7
2017-Jun-16 01:29N 37°55' W 076°10'1020.6
2017-Jun-16 01:00N 38°04' W 076°13'1020.5
2017-Jun-16 00:30N 38°14' W 076°16'1120.1
2017-Jun-15 23:58N 38°24' W 076°21'2419.3
2017-Jun-15 22:44N 38°48' W 076°25'520.1
2017-Jun-15 22:30N 38°52' W 076°24'1616.6
2017-Jun-15 21:34N 39°08' W 076°24'114.7
2017-Jun-15 21:30N 39°09' W 076°24'612.5
2017-Jun-15 21:01N 39°12' W 076°31'5 9.0
2017-Jun-15 20:30N 39°15' W 076°35'1 1.1
2017-Jun-15 19:53N 39°16' W 076°36'0 0.0
2017-Jun-15 19:29N 39°16' W 076°36'0 0.0
2017-Jun-15 18:56N 39°16' W 076°36'0 0.0
2017-Jun-15 18:26N 39°16' W 076°36'0 0.0
2017-Jun-15 17:59N 39°16' W 076°36'0 0.0
2017-Jun-15 17:29N 39°16' W 076°36'0 0.0
2017-Jun-15 16:56N 39°16' W 076°36'0 0.0
2017-Jun-15 16:29N 39°16' W 076°36'0 0.0
2017-Jun-15 15:26N 39°16' W 076°36'0 0.0
2017-Jun-15 14:56N 39°16' W 076°36'0 0.0
2017-Jun-15 14:14N 39°16' W 076°36'0 0.0
2017-Jun-15 11:35N 39°16' W 076°36'0 0.0
2017-Jun-15 11:17N 39°16' W 076°36'0 0.0
2017-Jun-15 10:59N 39°16' W 076°36'2 3.4
2017-Jun-15 10:31N 39°15' W 076°34'5 9.7
2017-Jun-15 10:00N 39°12' W 076°29'611.4
2017-Jun-15 09:31N 39°08' W 076°24'713.3
2017-Jun-15 09:00N 39°02' W 076°23'714.6
2017-Jun-15 08:31N 38°54' W 076°24'816.8
2017-Jun-15 08:01N 38°46' W 076°26'918.5
2017-Jun-15 07:31N 38°37' W 076°25'1020.8
2017-Jun-15 07:01N 38°27' W 076°22'1721.7
2017-Jun-15 06:15N 38°11' W 076°14'522.1
2017-Jun-15 06:00N 38°06' W 076°13'6219.6
2017-Jun-15 02:51N 37°05' W 076°06'721.0
2017-Jun-15 02:30N 36°59' W 076°00'914.2
2017-Jun-15 01:51N 36°52' W 075°52'  
2017-Jun-11 05:39N 36°52' W 075°52'319.0
2017-Jun-11 05:30N 36°53' W 075°54'814.4
2017-Jun-11 04:59N 36°59' W 076°01'3516.4
2017-Jun-11 02:50N 37°35' W 076°03'2518.6
2017-Jun-11 01:28N 37°59' W 076°11'1020.4
2017-Jun-11 01:00N 38°08' W 076°14'2120.6
2017-Jun-10 23:58N 38°28' W 076°23'1119.3
2017-Jun-10 23:24N 38°39' W 076°25'1118.9
2017-Jun-10 22:51N 38°50' W 076°24'616.6
2017-Jun-10 22:30N 38°55' W 076°23'815.0
2017-Jun-10 22:00N 39°03' W 076°23'712.9
2017-Jun-10 21:29N 39°09' W 076°25'510.5
2017-Jun-10 21:00N 39°12' W 076°30'4 9.0
2017-Jun-10 20:30N 39°15' W 076°34'1 2.6
2017-Jun-10 20:00N 39°16' W 076°36'0 0.0
2017-Jun-10 19:29N 39°16' W 076°36'0 0.0
2017-Jun-10 18:59N 39°16' W 076°36'0 0.0
2017-Jun-10 18:26N 39°16' W 076°36'0 0.0
2017-Jun-10 14:47N 39°16' W 076°36'0 0.0
2017-Jun-10 13:50N 39°16' W 076°36'0 0.0
2017-Jun-10 13:26N 39°16' W 076°36'0 0.0
2017-Jun-10 12:53N 39°16' W 076°36'0 0.0
2017-Jun-10 12:26N 39°16' W 076°36'0 0.0
2017-Jun-10 11:50N 39°16' W 076°36'0 0.0
2017-Jun-10 11:14N 39°16' W 076°36'0 0.0
2017-Jun-10 10:47N 39°16' W 076°36'0 0.0
2017-Jun-10 10:26N 39°16' W 076°36'0 0.0
2017-Jun-10 09:58N 39°16' W 076°36'1 2.9
2017-Jun-10 09:31N 39°15' W 076°34'510.5
2017-Jun-10 09:00N 39°12' W 076°29'612.2
2017-Jun-10 08:31N 39°07' W 076°24'714.6
2017-Jun-10 08:00N 39°00' W 076°23'816.0
2017-Jun-10 07:31N 38°52' W 076°24'1017.5
2017-Jun-10 06:58N 38°43' W 076°26'917.5
2017-Jun-10 06:28N 38°34' W 076°26'817.5
2017-Jun-10 06:00N 38°27' W 076°22'917.6
2017-Jun-10 05:30N 38°19' W 076°18'917.5
2017-Jun-10 05:00N 38°10' W 076°14'917.6
2017-Jun-10 04:30N 38°02' W 076°13'917.4
2017-Jun-10 04:00N 37°53' W 076°09'917.3
2017-Jun-10 03:30N 37°45' W 076°11'3715.9
2017-Jun-10 01:13N 37°08' W 076°09'417.5
2017-Jun-10 00:58N 37°05' W 076°06'716.1
2017-Jun-10 00:30N 36°59' W 076°00'511.0
2017-Jun-10 00:00N 36°57' W 075°54'510.1
2017-Jun-09 23:30N 36°58' W 075°48'  
Track history (hours):
 
Tides and Currents Weather Stations Pressure Air Temp Water Temp Dewpoint Dewpoint Depression Visibility Wind Speed Wind Dir Waves Ship Positions

Grandeur Of The Seas

Operator: Royal Caribbean Cruises Ltd

Last reported at 2017-Jun-16 05:22 UTC. Time now 2017-Jun-22 16:37 UTC.
Position N 36°52' W 075°53'.

Type: Passenger vessel. MMSI: 311315000.

Date/timePositionNaut miles runAvg speedWind from/ knotsBaromVisibWave heightAir tempDewpointWater temp
2017-Jun-16 05:22N 36°52' W 075°53'618.0
2017-Jun-16 05:00N 36°56' W 075°59'1115.4
2017-Jun-16 04:17N 37°06' W 076°07'518.7
2017-Jun-16 04:00N 37°10' W 076°09'1018.9
2017-Jun-16 03:29N 37°20' W 076°05'1317.7
2017-Jun-16 02:47N 37°32' W 076°02'517.3
2017-Jun-16 02:30N 37°36' W 076°05'917.9
2017-Jun-16 02:00N 37°44' W 076°11'1120.7
2017-Jun-16 01:29N 37°55' W 076°10'1020.6
2017-Jun-16 01:00N 38°04' W 076°13'1020.5
2017-Jun-16 00:30N 38°14' W 076°16'1120.1
2017-Jun-15 23:58N 38°24' W 076°21'2419.3
2017-Jun-15 22:44N 38°48' W 076°25'520.1
2017-Jun-15 22:30N 38°52' W 076°24'1616.6
2017-Jun-15 21:34N 39°08' W 076°24'114.7
2017-Jun-15 21:30N 39°09' W 076°24'612.5
2017-Jun-15 21:01N 39°12' W 076°31'5 9.0
2017-Jun-15 20:30N 39°15' W 076°35'1 1.1
2017-Jun-15 19:53N 39°16' W 076°36'0 0.0
2017-Jun-15 19:29N 39°16' W 076°36'0 0.0
2017-Jun-15 18:56N 39°16' W 076°36'0 0.0
2017-Jun-15 18:26N 39°16' W 076°36'0 0.0
2017-Jun-15 17:59N 39°16' W 076°36'0 0.0
2017-Jun-15 17:29N 39°16' W 076°36'0 0.0
2017-Jun-15 16:56N 39°16' W 076°36'0 0.0
2017-Jun-15 16:29N 39°16' W 076°36'0 0.0
2017-Jun-15 15:26N 39°16' W 076°36'0 0.0
2017-Jun-15 14:56N 39°16' W 076°36'0 0.0
2017-Jun-15 14:14N 39°16' W 076°36'0 0.0
2017-Jun-15 11:35N 39°16' W 076°36'0 0.0
2017-Jun-15 11:17N 39°16' W 076°36'0 0.0
2017-Jun-15 10:59N 39°16' W 076°36'2 3.4
2017-Jun-15 10:31N 39°15' W 076°34'5 9.7
2017-Jun-15 10:00N 39°12' W 076°29'611.4
2017-Jun-15 09:31N 39°08' W 076°24'713.3
2017-Jun-15 09:00N 39°02' W 076°23'714.6
2017-Jun-15 08:31N 38°54' W 076°24'816.8
2017-Jun-15 08:01N 38°46' W 076°26'918.5
2017-Jun-15 07:31N 38°37' W 076°25'1020.8
2017-Jun-15 07:01N 38°27' W 076°22'1721.7
2017-Jun-15 06:15N 38°11' W 076°14'522.1
2017-Jun-15 06:00N 38°06' W 076°13'6219.6
2017-Jun-15 02:51N 37°05' W 076°06'721.0
2017-Jun-15 02:30N 36°59' W 076°00'914.2
2017-Jun-15 01:51N 36°52' W 075°52'  
2017-Jun-11 05:39N 36°52' W 075°52'319.0
2017-Jun-11 05:30N 36°53' W 075°54'814.4
2017-Jun-11 04:59N 36°59' W 076°01'3516.4
2017-Jun-11 02:50N 37°35' W 076°03'2518.6
2017-Jun-11 01:28N 37°59' W 076°11'1020.4
2017-Jun-11 01:00N 38°08' W 076°14'2120.6
2017-Jun-10 23:58N 38°28' W 076°23'1119.3
2017-Jun-10 23:24N 38°39' W 076°25'1118.9
2017-Jun-10 22:51N 38°50' W 076°24'616.6
2017-Jun-10 22:30N 38°55' W 076°23'815.0
2017-Jun-10 22:00N 39°03' W 076°23'712.9
2017-Jun-10 21:29N 39°09' W 076°25'510.5
2017-Jun-10 21:00N 39°12' W 076°30'4 9.0
2017-Jun-10 20:30N 39°15' W 076°34'1 2.6
2017-Jun-10 20:00N 39°16' W 076°36'0 0.0
2017-Jun-10 19:29N 39°16' W 076°36'0 0.0
2017-Jun-10 18:59N 39°16' W 076°36'0 0.0
2017-Jun-10 18:26N 39°16' W 076°36'0 0.0
2017-Jun-10 14:47N 39°16' W 076°36'0 0.0
2017-Jun-10 13:50N 39°16' W 076°36'0 0.0
2017-Jun-10 13:26N 39°16' W 076°36'0 0.0
2017-Jun-10 12:53N 39°16' W 076°36'0 0.0
2017-Jun-10 12:26N 39°16' W 076°36'0 0.0
2017-Jun-10 11:50N 39°16' W 076°36'0 0.0
2017-Jun-10 11:14N 39°16' W 076°36'0 0.0
2017-Jun-10 10:47N 39°16' W 076°36'0 0.0
2017-Jun-10 10:26N 39°16' W 076°36'0 0.0
2017-Jun-10 09:58N 39°16' W 076°36'1 2.9
2017-Jun-10 09:31N 39°15' W 076°34'510.5
2017-Jun-10 09:00N 39°12' W 076°29'612.2
2017-Jun-10 08:31N 39°07' W 076°24'714.6
2017-Jun-10 08:00N 39°00' W 076°23'816.0
2017-Jun-10 07:31N 38°52' W 076°24'1017.5
2017-Jun-10 06:58N 38°43' W 076°26'917.5
2017-Jun-10 06:28N 38°34' W 076°26'817.5
2017-Jun-10 06:00N 38°27' W 076°22'917.6
2017-Jun-10 05:30N 38°19' W 076°18'917.5
2017-Jun-10 05:00N 38°10' W 076°14'917.6
2017-Jun-10 04:30N 38°02' W 076°13'917.4
2017-Jun-10 04:00N 37°53' W 076°09'917.3
2017-Jun-10 03:30N 37°45' W 076°11'3715.9
2017-Jun-10 01:13N 37°08' W 076°09'417.5
2017-Jun-10 00:58N 37°05' W 076°06'716.1
2017-Jun-10 00:30N 36°59' W 076°00'511.0
2017-Jun-10 00:00N 36°57' W 075°54'510.1
2017-Jun-09 23:30N 36°58' W 075°48'  

Dump ship's entire track history